createdAt,value
2018-04-30T00:02:22.914Z,11.70
2018-04-30T00:04:51.788Z,11.70
2018-04-30T00:07:20.665Z,11.70
2018-04-30T00:09:49.595Z,11.70
2018-04-30T00:12:18.481Z,11.70
2018-04-30T00:14:47.362Z,11.70
2018-04-30T00:17:17.045Z,11.60
2018-04-30T00:19:45.911Z,11.60
2018-04-30T00:22:14.785Z,11.50
2018-04-30T00:24:43.699Z,11.40
2018-04-30T00:27:12.572Z,11.40
2018-04-30T00:29:41.441Z,11.30
2018-04-30T00:32:10.337Z,11.30
2018-04-30T00:34:39.361Z,11.30
2018-04-30T00:37:08.264Z,11.30
2018-04-30T00:39:37.133Z,11.30
2018-04-30T00:42:05.999Z,11.30
2018-04-30T00:44:34.915Z,11.30
2018-04-30T00:47:03.817Z,11.30
2018-04-30T00:49:32.683Z,11.20
2018-04-30T00:52:02.348Z,11.00
2018-04-30T00:57:46.051Z,10.90
2018-04-30T01:00:14.916Z,11.00
2018-04-30T01:02:43.780Z,11.00
2018-04-30T01:05:12.731Z,11.00
2018-04-30T01:07:41.604Z,11.20
2018-04-30T01:10:11.240Z,11.20
2018-04-30T01:12:40.173Z,11.20
2018-04-30T01:15:09.070Z,11.30
2018-04-30T01:17:37.974Z,11.30
2018-04-30T01:20:06.852Z,11.30
2018-04-30T01:22:35.725Z,11.30
2018-04-30T01:25:04.653Z,11.20
2018-04-30T01:27:33.530Z,11.20
2018-04-30T01:30:02.405Z,11.10
2018-04-30T01:32:31.304Z,11.00
2018-04-30T01:35:00.171Z,11.00
2018-04-30T01:37:29.075Z,11.00
2018-04-30T01:39:57.947Z,10.90
2018-04-30T01:42:26.819Z,10.90
2018-04-30T01:44:55.713Z,10.80
2018-04-30T01:47:24.580Z,10.70
2018-04-30T01:49:53.468Z,10.70
2018-04-30T01:52:23.144Z,10.70
2018-04-30T01:54:52.061Z,10.70
2018-04-30T01:57:20.935Z,10.70
2018-04-30T01:59:49.832Z,10.70
2018-04-30T02:02:18.745Z,10.70
2018-04-30T02:04:47.625Z,10.60
2018-04-30T02:07:16.498Z,10.60
2018-04-30T02:09:45.383Z,10.60
2018-04-30T02:12:14.297Z,10.60
2018-04-30T02:14:43.165Z,10.60
2018-04-30T02:17:12.082Z,10.60
2018-04-30T02:19:40.965Z,10.70
2018-04-30T02:22:09.840Z,10.70
2018-04-30T02:24:38.752Z,10.70
2018-04-30T02:27:07.634Z,10.60
2018-04-30T02:29:36.509Z,10.50
2018-04-30T02:32:05.404Z,10.50
2018-04-30T02:34:34.279Z,10.40
2018-04-30T02:37:03.198Z,10.40
2018-04-30T02:39:32.076Z,10.30
2018-04-30T02:42:00.964Z,10.20
2018-04-30T02:44:30.621Z,10.40
2018-04-30T02:46:59.501Z,10.40
2018-04-30T02:49:28.407Z,10.40
2018-04-30T02:51:58.098Z,10.40
2018-04-30T02:54:26.980Z,10.30
2018-04-30T02:56:55.870Z,10.30
2018-04-30T02:59:24.788Z,10.20
2018-04-30T03:01:54.432Z,10.10
2018-04-30T03:04:23.310Z,10.10
2018-04-30T03:06:52.224Z,10.10
2018-04-30T03:09:21.096Z,10.00
2018-04-30T03:11:49.996Z,9.90
2018-04-30T03:14:18.893Z,10.00
2018-04-30T03:16:48.531Z,10.10
2018-04-30T03:19:17.420Z,10.10
2018-04-30T03:21:46.303Z,10.10
2018-04-30T03:24:20.701Z,10.10
2018-04-30T03:26:49.573Z,10.10
2018-04-30T03:29:18.449Z,10.10
2018-04-30T03:31:47.720Z,10.10
2018-04-30T03:34:16.659Z,10.00
2018-04-30T03:36:45.565Z,10.00
2018-04-30T03:39:15.861Z,10.00
2018-04-30T03:41:44.768Z,10.00
2018-04-30T03:44:13.678Z,10.00
2018-04-30T03:46:43.344Z,9.90
2018-04-30T03:49:12.253Z,9.90
2018-04-30T03:51:41.914Z,10.00
2018-04-30T03:54:12.067Z,9.90
2018-04-30T03:56:40.997Z,10.00
2018-04-30T03:59:12.028Z,10.10
2018-04-30T04:01:58.844Z,10.10
2018-04-30T04:04:46.412Z,10.00
2018-04-30T04:07:15.283Z,10.00
2018-04-30T04:09:44.873Z,10.10
2018-04-30T04:12:13.782Z,10.20
2018-04-30T04:14:42.660Z,10.30
2018-04-30T04:17:12.320Z,10.70
2018-04-30T04:19:41.196Z,10.70
2018-04-30T04:22:10.120Z,10.90
2018-04-30T04:24:39.011Z,11.20
2018-04-30T04:27:07.919Z,11.30
2018-04-30T04:29:36.841Z,11.40
2018-04-30T04:32:05.767Z,11.70
2018-04-30T04:34:34.647Z,12.00
2018-04-30T04:37:03.540Z,12.20
2018-04-30T04:39:32.416Z,12.50
2018-04-30T04:42:01.317Z,12.80
2018-04-30T04:44:30.963Z,13.20
2018-04-30T04:46:59.904Z,13.10
2018-04-30T04:49:28.804Z,13.00
2018-04-30T04:51:57.681Z,13.00
2018-04-30T04:54:26.578Z,12.90
2018-04-30T04:56:55.467Z,12.70
2018-04-30T04:59:25.123Z,12.40
2018-04-30T05:01:54.046Z,12.40
2018-04-30T05:04:23.695Z,12.50
2018-04-30T05:06:52.578Z,12.50
2018-04-30T05:09:21.479Z,12.40
2018-04-30T05:11:51.123Z,13.00
2018-04-30T05:14:20.033Z,13.00
2018-04-30T05:16:48.933Z,13.60
2018-04-30T05:19:18.598Z,15.00
2018-04-30T05:21:47.475Z,15.00
2018-04-30T05:24:16.379Z,15.40
2018-04-30T05:26:46.111Z,16.80
2018-04-30T05:29:14.992Z,16.80
2018-04-30T05:31:43.869Z,17.10
2018-04-30T05:34:12.765Z,17.80
2018-04-30T05:36:41.688Z,18.30
2018-04-30T05:39:10.605Z,18.70
2018-04-30T05:41:39.479Z,19.10
2018-04-30T05:44:08.379Z,19.50
2018-04-30T05:46:37.537Z,19.80
2018-04-30T05:49:06.466Z,19.80
2018-04-30T05:51:35.349Z,20.00
2018-04-30T05:54:04.263Z,20.10
2018-04-30T05:56:33.187Z,20.40
2018-04-30T05:59:02.094Z,20.50
2018-04-30T06:01:31.048Z,20.00
2018-04-30T06:03:59.938Z,19.70
2018-04-30T06:06:28.839Z,19.50
2018-04-30T06:08:57.735Z,19.40
2018-04-30T06:11:26.652Z,19.20
2018-04-30T06:14:16.192Z,19.40
2018-04-30T06:16:45.711Z,19.50
2018-04-30T06:19:15.927Z,19.60
2018-04-30T06:21:44.840Z,19.30
2018-04-30T06:24:13.719Z,19.10
2018-04-30T06:26:43.436Z,18.40
2018-04-30T06:29:12.302Z,18.40
2018-04-30T06:31:41.954Z,18.70
2018-04-30T06:34:10.841Z,19.30
2018-04-30T06:36:39.716Z,20.00
2018-04-30T06:39:09.908Z,20.70
2018-04-30T06:41:38.779Z,21.10
2018-04-30T06:44:07.660Z,21.10
2018-04-30T06:46:36.563Z,21.70
2018-04-30T06:49:06.212Z,22.30
2018-04-30T06:51:35.129Z,22.30
2018-04-30T06:54:04.771Z,22.60
2018-04-30T06:56:33.663Z,22.60
2018-04-30T06:59:02.570Z,22.50
2018-04-30T07:01:32.251Z,22.70
2018-04-30T07:04:01.155Z,22.70
2018-04-30T07:06:30.066Z,22.80
2018-04-30T07:08:58.947Z,22.80
2018-04-30T07:11:27.871Z,23.30
2018-04-30T07:13:57.521Z,23.60
2018-04-30T07:16:26.400Z,23.50
2018-04-30T07:18:55.296Z,23.50
2018-04-30T07:21:24.231Z,23.30
2018-04-30T07:23:53.111Z,23.50
2018-04-30T07:26:21.987Z,23.60
2018-04-30T07:28:50.881Z,23.50
2018-04-30T07:31:19.821Z,23.40
2018-04-30T07:33:48.694Z,23.30
2018-04-30T07:36:17.589Z,23.60
2018-04-30T07:38:46.492Z,23.80
2018-04-30T07:41:15.414Z,23.90
2018-04-30T07:43:45.524Z,24.20
2018-04-30T07:46:14.407Z,24.20
2018-04-30T07:48:43.312Z,24.30
2018-04-30T07:51:13.484Z,24.40
2018-04-30T07:53:42.410Z,24.60
2018-04-30T07:56:12.036Z,24.40
2018-04-30T07:58:40.939Z,24.40
2018-04-30T08:01:10.474Z,24.80
2018-04-30T08:03:40.248Z,25.00
2018-04-30T08:06:09.284Z,25.00
2018-04-30T08:08:38.428Z,24.80
2018-04-30T08:11:08.291Z,23.80
2018-04-30T08:13:37.596Z,23.80
2018-04-30T08:16:06.833Z,23.50
2018-04-30T08:18:35.727Z,23.30
2018-04-30T08:21:04.772Z,23.40
2018-04-30T08:23:34.921Z,23.70
2018-04-30T08:26:04.103Z,24.10
2018-04-30T08:28:33.242Z,24.20
2018-04-30T08:31:03.648Z,24.20
2018-04-30T08:33:32.544Z,24.40
2018-04-30T08:36:01.620Z,24.80
2018-04-30T08:38:30.547Z,25.10
2018-04-30T08:40:59.549Z,24.70
2018-04-30T08:43:28.735Z,24.50
2018-04-30T08:45:57.936Z,24.10
2018-04-30T08:48:27.903Z,23.80
2018-04-30T08:50:56.886Z,23.80
2018-04-30T08:53:25.972Z,24.10
2018-04-30T08:55:54.874Z,24.10
2018-04-30T08:58:23.944Z,24.00
2018-04-30T09:00:53.029Z,23.90
2018-04-30T09:03:22.264Z,24.10
2018-04-30T09:05:52.063Z,24.20
2018-04-30T09:08:21.885Z,24.10
2018-04-30T09:10:50.970Z,24.10
2018-04-30T09:13:19.943Z,24.00
2018-04-30T09:15:48.814Z,24.20
2018-04-30T09:18:17.694Z,24.50
2018-04-30T09:20:46.591Z,24.50
2018-04-30T09:23:15.861Z,24.60
2018-04-30T09:25:44.791Z,24.80
2018-04-30T09:28:14.831Z,24.70
2018-04-30T09:30:43.932Z,24.50
2018-04-30T09:33:13.329Z,24.50
2018-04-30T09:35:44.085Z,25.00
2018-04-30T09:38:13.757Z,24.90
2018-04-30T09:40:42.659Z,24.90
2018-04-30T09:43:12.292Z,24.70
2018-04-30T09:45:41.227Z,24.70
2018-04-30T09:48:10.915Z,24.60
2018-04-30T09:50:40.585Z,24.50
2018-04-30T09:53:09.680Z,24.50
2018-04-30T09:55:38.571Z,24.40
2018-04-30T09:58:08.244Z,24.80
2018-04-30T10:00:37.286Z,24.80
2018-04-30T10:03:06.200Z,25.00
2018-04-30T10:05:35.144Z,25.20
2018-04-30T10:08:04.018Z,25.10
2018-04-30T10:10:32.923Z,25.10
2018-04-30T10:13:01.819Z,25.20
2018-04-30T10:15:32.304Z,25.00
2018-04-30T10:18:01.272Z,24.70
2018-04-30T10:20:30.188Z,24.50
2018-04-30T10:22:59.862Z,24.70
2018-04-30T10:25:28.770Z,24.60
2018-04-30T10:27:58.436Z,24.70
2018-04-30T10:30:27.423Z,24.80
2018-04-30T10:32:57.135Z,24.40
2018-04-30T10:35:28.024Z,24.30
2018-04-30T10:37:57.691Z,24.10
2018-04-30T10:40:27.820Z,24.10
2018-04-30T10:42:56.735Z,23.80
2018-04-30T10:45:26.054Z,23.70
2018-04-30T10:47:55.875Z,23.70
2018-04-30T10:50:24.746Z,23.80
2018-04-30T10:52:53.622Z,24.00
2018-04-30T10:55:22.533Z,24.10
2018-04-30T10:57:51.431Z,24.30
2018-04-30T11:00:20.419Z,24.40
2018-04-30T11:02:49.326Z,24.60
2018-04-30T11:05:18.201Z,24.60
2018-04-30T11:07:47.108Z,24.50
2018-04-30T11:10:16.050Z,24.50
2018-04-30T11:12:46.035Z,24.60
2018-04-30T11:15:14.966Z,24.60
2018-04-30T11:17:43.859Z,24.60
2018-04-30T11:20:13.020Z,24.50
2018-04-30T11:22:43.437Z,24.10
2018-04-30T11:25:12.468Z,24.10
2018-04-30T11:27:42.903Z,24.00
2018-04-30T11:30:13.739Z,23.90
2018-04-30T11:32:43.059Z,23.90
2018-04-30T11:35:12.754Z,23.80
2018-04-30T11:37:42.325Z,23.70
2018-04-30T11:40:12.023Z,23.50
2018-04-30T11:42:41.279Z,23.50
2018-04-30T11:45:10.260Z,23.50
2018-04-30T11:47:39.143Z,23.60
2018-04-30T11:50:08.043Z,23.60
2018-04-30T11:52:36.958Z,23.70
2018-04-30T11:55:06.609Z,23.70
2018-04-30T11:57:35.530Z,23.70
2018-04-30T12:00:04.511Z,23.80
2018-04-30T12:02:33.411Z,23.80
2018-04-30T12:05:02.507Z,23.70
2018-04-30T12:07:31.392Z,23.60
2018-04-30T12:10:00.504Z,23.50
2018-04-30T12:12:30.622Z,23.50
2018-04-30T12:15:00.504Z,23.60
2018-04-30T12:17:30.526Z,23.60
2018-04-30T12:19:59.702Z,23.60
2018-04-30T12:22:29.577Z,23.60
2018-04-30T12:24:58.787Z,23.60
2018-04-30T12:27:28.599Z,23.50
2018-04-30T12:29:57.542Z,23.50
2018-04-30T12:32:27.363Z,23.30
2018-04-30T12:34:56.367Z,23.30
2018-04-30T12:37:25.290Z,23.30
2018-04-30T12:39:55.241Z,23.20
2018-04-30T12:42:24.284Z,23.20
2018-04-30T12:44:53.175Z,23.10
2018-04-30T12:47:22.284Z,23.00
2018-04-30T12:49:51.283Z,22.80
2018-04-30T12:52:20.826Z,22.70
2018-04-30T12:54:49.797Z,22.60
2018-04-30T12:57:18.888Z,22.60
2018-04-30T12:59:47.953Z,22.60
2018-04-30T13:02:17.680Z,22.60
2018-04-30T13:04:47.157Z,22.50
2018-04-30T13:07:16.041Z,22.60
2018-04-30T13:09:44.925Z,22.60
2018-04-30T13:12:13.839Z,22.40
2018-04-30T13:14:43.515Z,22.50
2018-04-30T13:17:12.395Z,22.40
2018-04-30T13:19:41.259Z,22.40
2018-04-30T13:22:10.163Z,22.30
2018-04-30T13:24:39.816Z,22.30
2018-04-30T13:27:10.522Z,22.50
2018-04-30T13:29:39.411Z,22.40
2018-04-30T13:32:08.284Z,22.60
2018-04-30T13:34:37.187Z,22.60
2018-04-30T13:37:06.144Z,22.70
2018-04-30T13:39:34.973Z,22.60
2018-04-30T13:42:03.895Z,22.60
2018-04-30T13:44:32.828Z,22.40
2018-04-30T13:47:01.699Z,22.40
2018-04-30T13:49:32.121Z,22.40
2018-04-30T13:52:01.902Z,22.60
2018-04-30T13:54:31.056Z,22.50
2018-04-30T13:57:00.154Z,22.60
2018-04-30T13:59:29.139Z,22.60
2018-04-30T14:01:58.240Z,22.60
2018-04-30T14:04:27.231Z,22.60
2018-04-30T14:06:56.367Z,22.60
2018-04-30T14:09:26.037Z,22.60
2018-04-30T14:11:55.128Z,22.60
2018-04-30T14:14:24.322Z,22.70
2018-04-30T14:16:57.340Z,22.70
2018-04-30T14:19:26.662Z,22.70
2018-04-30T14:21:55.699Z,22.60
2018-04-30T14:24:24.932Z,22.60
2018-04-30T14:26:53.803Z,22.50
2018-04-30T14:29:23.043Z,22.40
2018-04-30T14:31:51.947Z,22.40
2018-04-30T14:34:20.849Z,22.30
2018-04-30T14:36:49.738Z,22.30
2018-04-30T14:39:19.255Z,22.30
2018-04-30T14:41:48.162Z,22.20
2018-04-30T14:44:17.031Z,22.20
2018-04-30T14:46:46.690Z,22.20
2018-04-30T14:49:15.605Z,22.10
2018-04-30T14:51:44.481Z,22.10
2018-04-30T14:54:13.411Z,22.00
2018-04-30T14:56:43.054Z,21.90
2018-04-30T14:59:11.955Z,21.90
2018-04-30T15:01:40.868Z,21.90
2018-04-30T15:04:09.741Z,21.90
2018-04-30T15:06:38.611Z,21.80
2018-04-30T15:09:07.507Z,21.80
2018-04-30T15:11:36.371Z,21.70
2018-04-30T15:14:05.243Z,21.70
2018-04-30T15:16:34.142Z,21.70
2018-04-30T15:19:03.055Z,21.60
2018-04-30T15:21:31.944Z,21.60
2018-04-30T15:24:01.580Z,21.60
2018-04-30T15:26:30.468Z,21.60
2018-04-30T15:29:00.129Z,21.60
2018-04-30T15:31:28.999Z,21.60
2018-04-30T15:33:57.868Z,21.50
2018-04-30T15:36:26.763Z,21.40
2018-04-30T15:38:55.655Z,21.30
2018-04-30T15:41:24.540Z,21.30
2018-04-30T15:43:53.435Z,21.20
2018-04-30T15:46:22.370Z,21.10
2018-04-30T15:48:51.219Z,21.10
2018-04-30T15:51:21.583Z,21.00
2018-04-30T15:53:50.591Z,21.00
2018-04-30T15:56:20.390Z,20.80
2018-04-30T15:58:50.358Z,20.80
2018-04-30T16:01:19.304Z,20.80
2018-04-30T16:03:49.133Z,20.70
2018-04-30T16:06:18.123Z,20.70
2018-04-30T16:08:48.663Z,20.70
2018-04-30T16:11:17.660Z,20.60
2018-04-30T16:13:46.952Z,20.60
2018-04-30T16:16:16.251Z,20.60
2018-04-30T16:18:45.383Z,20.60
2018-04-30T16:21:15.235Z,20.40
2018-04-30T16:23:44.104Z,20.40
2018-04-30T16:26:13.325Z,20.30
2018-04-30T16:28:43.184Z,20.10
2018-04-30T16:31:12.263Z,20.10
2018-04-30T16:33:46.787Z,20.00
2018-04-30T16:36:16.011Z,20.00
2018-04-30T16:38:45.096Z,19.90
2018-04-30T16:41:16.106Z,19.90
2018-04-30T16:43:45.790Z,19.70
2018-04-30T16:46:15.015Z,19.70
2018-04-30T16:48:44.045Z,19.70
2018-04-30T16:51:13.325Z,19.70
2018-04-30T16:53:43.175Z,19.60
2018-04-30T16:56:13.064Z,19.60
2018-04-30T16:58:41.929Z,19.50
2018-04-30T17:01:10.979Z,19.40
2018-04-30T17:03:41.002Z,19.20
2018-04-30T17:06:12.414Z,19.20
2018-04-30T17:08:41.570Z,19.10
2018-04-30T17:11:10.457Z,19.10
2018-04-30T17:13:39.347Z,19.00
2018-04-30T17:16:08.986Z,18.90
2018-04-30T17:18:37.920Z,18.90
2018-04-30T17:21:07.566Z,18.70
2018-04-30T17:23:36.432Z,18.70
2018-04-30T17:26:05.335Z,18.70
2018-04-30T17:28:34.204Z,18.60
2018-04-30T17:31:03.392Z,18.60
2018-04-30T17:33:32.334Z,18.50
2018-04-30T17:36:01.629Z,18.40
2018-04-30T17:38:30.740Z,18.20
2018-04-30T17:40:59.961Z,18.00
2018-04-30T17:43:29.008Z,17.90
2018-04-30T17:45:58.065Z,17.70
2018-04-30T17:48:26.971Z,17.60
2018-04-30T17:50:56.619Z,17.50
2018-04-30T17:53:26.499Z,17.30
2018-04-30T17:55:55.781Z,17.30
2018-04-30T17:58:25.177Z,17.20
2018-04-30T18:00:54.414Z,17.20
2018-04-30T18:03:24.116Z,17.10
2018-04-30T18:05:53.811Z,17.20
2018-04-30T18:08:23.888Z,17.20
2018-04-30T18:10:53.224Z,17.20
2018-04-30T18:13:22.410Z,17.10
2018-04-30T18:15:51.467Z,17.10
2018-04-30T18:18:20.571Z,17.00
2018-04-30T18:20:49.667Z,16.90
2018-04-30T18:23:18.784Z,16.80
2018-04-30T18:25:48.627Z,16.70
2018-04-30T18:28:17.843Z,16.70
2018-04-30T18:30:47.152Z,16.70
2018-04-30T18:33:16.204Z,16.70
2018-04-30T18:35:45.056Z,16.70
2018-04-30T18:38:14.394Z,16.70
2018-04-30T18:40:43.741Z,16.70
2018-04-30T18:43:12.876Z,16.70
2018-04-30T18:45:41.989Z,16.70
2018-04-30T18:48:11.771Z,16.60
2018-04-30T18:50:40.752Z,16.60
2018-04-30T18:53:09.927Z,16.50
2018-04-30T18:55:39.163Z,16.40
2018-04-30T18:58:08.115Z,16.30
2018-04-30T19:03:12.553Z,16.20
2018-04-30T19:05:42.327Z,16.00
2018-04-30T19:08:11.317Z,16.00
2018-04-30T19:10:41.423Z,16.00
2018-04-30T19:13:10.651Z,16.00
2018-04-30T19:15:41.879Z,16.00
2018-04-30T19:18:11.004Z,16.00
2018-04-30T19:20:39.875Z,16.00
2018-04-30T19:23:08.781Z,16.00
2018-04-30T19:25:38.414Z,16.10
2018-04-30T19:28:07.276Z,16.00
2018-04-30T19:30:36.175Z,16.10
2018-04-30T19:33:05.732Z,16.00
2018-04-30T19:35:34.608Z,15.90
2018-04-30T19:38:03.515Z,16.00
2018-04-30T19:40:32.379Z,16.00
2018-04-30T19:43:01.289Z,16.00
2018-04-30T19:45:33.562Z,16.10
2018-04-30T19:48:02.416Z,16.20
2018-04-30T19:50:31.295Z,16.30
2018-04-30T19:53:00.337Z,16.20
2018-04-30T19:55:29.219Z,16.20
2018-04-30T19:57:58.112Z,16.10
2018-04-30T20:00:27.008Z,16.10
2018-04-30T20:02:56.682Z,16.20
2018-04-30T20:05:25.579Z,16.10
2018-04-30T20:07:54.509Z,16.10
2018-04-30T20:10:23.501Z,16.00
2018-04-30T20:12:52.375Z,15.90
2018-04-30T20:15:21.311Z,15.70
2018-04-30T20:17:50.190Z,15.60
2018-04-30T20:20:19.174Z,15.50
2018-04-30T20:22:48.023Z,15.40
2018-04-30T20:25:16.922Z,15.30
2018-04-30T20:27:45.832Z,15.20
2018-04-30T20:30:14.724Z,15.20
2018-04-30T20:32:43.740Z,15.10
2018-04-30T20:35:12.663Z,15.00
2018-04-30T20:37:41.665Z,15.00
2018-04-30T20:40:10.859Z,14.90
2018-04-30T20:42:39.769Z,14.90
2018-04-30T20:45:08.660Z,14.90
2018-04-30T20:47:37.559Z,14.90
2018-04-30T20:50:06.647Z,14.80
2018-04-30T20:52:36.291Z,14.70
2018-04-30T20:55:05.192Z,14.70
2018-04-30T20:57:34.228Z,14.70
2018-04-30T21:00:03.199Z,14.60
2018-04-30T21:02:32.019Z,14.60
2018-04-30T21:05:00.939Z,14.50
2018-04-30T21:07:30.183Z,14.50
2018-04-30T21:09:59.067Z,14.50
2018-04-30T21:12:27.948Z,14.50
2018-04-30T21:14:57.616Z,14.20
2018-04-30T21:17:26.670Z,14.10
2018-04-30T21:19:55.501Z,14.10
2018-04-30T21:22:25.140Z,14.00
2018-04-30T21:24:54.035Z,14.00
2018-04-30T21:27:22.947Z,14.10
2018-04-30T21:29:52.580Z,14.40
2018-04-30T21:32:23.406Z,14.40
2018-04-30T21:34:52.284Z,14.50
2018-04-30T21:37:21.192Z,14.70
2018-04-30T21:39:50.065Z,14.60
2018-04-30T21:42:18.983Z,14.50
2018-04-30T21:44:47.862Z,14.60
2018-04-30T21:47:16.743Z,14.60
2018-04-30T21:49:45.638Z,14.40
2018-04-30T21:52:14.527Z,14.00
2018-04-30T21:54:43.443Z,13.80
2018-04-30T21:57:12.366Z,13.60
2018-04-30T21:59:41.235Z,13.30
2018-04-30T22:02:10.141Z,13.20
2018-04-30T22:04:39.013Z,13.10
2018-04-30T22:07:07.972Z,13.10
2018-04-30T22:09:42.420Z,13.10
2018-04-30T22:12:11.359Z,12.90
2018-04-30T22:14:40.260Z,12.90
2018-04-30T22:17:09.899Z,12.70
2018-04-30T22:19:38.772Z,12.80
2018-04-30T22:22:07.710Z,12.70
2018-04-30T22:24:36.591Z,12.70
2018-04-30T22:27:05.508Z,12.60
2018-04-30T22:29:34.680Z,12.60
2018-04-30T22:32:03.566Z,12.50
2018-04-30T22:34:32.437Z,12.40
2018-04-30T22:37:01.332Z,12.40
2018-04-30T22:39:30.243Z,12.40
2018-04-30T22:41:59.876Z,12.40
2018-04-30T22:44:28.771Z,12.40
2018-04-30T22:46:57.643Z,12.40
2018-04-30T22:49:26.547Z,12.50
2018-04-30T22:51:56.191Z,12.60
2018-04-30T22:54:25.099Z,12.60
2018-04-30T22:56:54.004Z,12.70
2018-04-30T22:59:22.885Z,12.70
2018-04-30T23:01:52.107Z,12.70
2018-04-30T23:04:21.748Z,12.90
2018-04-30T23:06:51.428Z,12.80
2018-04-30T23:09:21.068Z,12.80
2018-04-30T23:11:50.038Z,12.70
2018-04-30T23:14:18.957Z,12.70
2018-04-30T23:16:47.853Z,12.60
2018-04-30T23:19:17.503Z,12.50
2018-04-30T23:21:46.421Z,12.60
2018-04-30T23:24:16.076Z,12.50
2018-04-30T23:26:44.955Z,12.50
2018-04-30T23:29:13.852Z,12.40
2018-04-30T23:31:42.743Z,12.30
2018-04-30T23:34:12.416Z,12.30
2018-04-30T23:36:41.291Z,12.20
2018-04-30T23:39:10.193Z,12.20
2018-04-30T23:41:39.874Z,12.10
2018-04-30T23:44:10.800Z,12.10
2018-04-30T23:46:40.471Z,12.10
2018-04-30T23:49:09.391Z,12.10
2018-04-30T23:51:38.264Z,12.00
2018-04-30T23:54:07.154Z,12.00
2018-04-30T23:56:36.047Z,12.00
2018-04-30T23:59:04.943Z,11.90
